Time;durP1;ratioP1;P1;durP2;ratioP2;P2;SDS_P1;SDS_P2;PMS_P1;PMS_P2;Temp;Humidity;BMP_temperature;BMP_pressure;BME280_temperature;BME280_humidity;BME280_pressure;Samples;Min_cycle;Max_cycle;Signal;HPM_P1;HPM_P2
2023/09/25 00:00:48;;;;;;;5.72;2.55;;;;;;;;;;2091049;28;20149;-57
2023/09/25 00:01:48;;;;;;;6.15;3.00;;;;;;;;;;2090638;28;20089;-57
2023/09/25 00:02:49;;;;;;;5.70;3.10;;;;;;;;;;2090105;28;20025;-57
2023/09/25 00:03:50;;;;;;;4.63;2.60;;;;;;;;;;2090149;28;20377;-57
2023/09/25 00:04:51;;;;;;;4.53;2.13;;;;;;;;;;2091034;28;20052;-57
2023/09/25 00:05:51;;;;;;;7.43;2.75;;;;;;;;;;2090491;28;20053;-57
2023/09/25 00:06:52;;;;;;;9.18;2.33;;;;;;;;;;2090126;28;20107;-59
2023/09/25 00:07:53;;;;;;;7.07;2.40;;;;;;;;;;2090356;28;20135;-57
2023/09/25 00:08:54;;;;;;;5.78;2.28;;;;;;;;;;2090743;28;20039;-57
2023/09/25 00:09:55;;;;;;;5.75;2.60;;;;;;;;;;2091251;28;20052;-57
2023/09/25 00:10:55;;;;;;;5.30;2.40;;;;;;;;;;2091014;28;20040;-57
2023/09/25 00:11:56;;;;;;;6.43;2.30;;;;;;;;;;2090798;28;20484;-57
2023/09/25 00:12:57;;;;;;;5.22;2.53;;;;;;;;;;2090484;28;20053;-57
2023/09/25 00:13:58;;;;;;;4.85;2.28;;;;;;;;;;2090409;28;20063;-57
2023/09/25 00:14:59;;;;;;;4.78;2.05;;;;;;;;;;2090677;28;20037;-57
2023/09/25 00:16:00;;;;;;;4.78;2.35;;;;;;;;;;2090554;28;20040;-57
2023/09/25 00:17:00;;;;;;;3.92;2.28;;;;;;;;;;2090652;28;20044;-57
2023/09/25 00:18:01;;;;;;;3.50;2.00;;;;;;;;;;2090791;28;20436;-57
2023/09/25 00:19:04;;;;;;;4.35;2.10;;;;;;;;;;2090614;28;20040;-57
2023/09/25 00:20:10;;;;;;;4.78;2.15;;;;;;;;;;2090008;28;20037;-57
2023/09/25 00:21:11;;;;;;;5.60;2.35;;;;;;;;;;2090098;28;20048;-57
2023/09/25 00:22:11;;;;;;;5.75;2.30;;;;;;;;;;2091019;28;20469;-57
2023/09/25 00:23:12;;;;;;;3.63;2.13;;;;;;;;;;2090348;28;20050;-57
2023/09/25 00:24:13;;;;;;;5.15;2.90;;;;;;;;;;2090612;28;20037;-57
2023/09/25 00:25:13;;;;;;;3.30;2.40;;;;;;;;;;2090556;28;20044;-57
2023/09/25 00:26:14;;;;;;;6.18;2.67;;;;;;;;;;2090603;28;20040;-58
2023/09/25 00:27:21;;;;;;;5.53;2.53;;;;;;;;;;2090642;28;20040;-57
2023/09/25 00:28:22;;;;;;;5.28;2.20;;;;;;;;;;2090508;28;20033;-57
2023/09/25 00:29:22;;;;;;;6.47;2.38;;;;;;;;;;2090521;28;20044;-57
2023/09/25 00:30:23;;;;;;;4.95;2.65;;;;;;;;;;2090193;28;20405;-57
2023/09/25 00:31:24;;;;;;;5.25;2.47;;;;;;;;;;2090886;28;20048;-57
2023/09/25 00:32:25;;;;;;;5.78;2.60;;;;;;;;;;2089902;28;20386;-57
2023/09/25 00:33:26;;;;;;;3.90;2.10;;;;;;;;;;2081653;28;20060;-57
2023/09/25 00:34:26;;;;;;;5.00;2.50;;;;;;;;;;2090075;28;20116;-57
2023/09/25 00:35:27;;;;;;;6.13;2.85;;;;;;;;;;2090426;28;20044;-57
2023/09/25 00:36:28;;;;;;;3.95;2.15;;;;;;;;;;2090516;28;20037;-57
2023/09/25 00:37:29;;;;;;;4.68;2.50;;;;;;;;;;2090464;28;20037;-57
2023/09/25 00:38:31;;;;;;;6.18;2.47;;;;;;;;;;2090502;28;20041;-58
2023/09/25 00:39:32;;;;;;;7.55;3.15;;;;;;;;;;2090475;28;20032;-57
2023/09/25 00:40:33;;;;;;;4.10;2.28;;;;;;;;;;2089569;28;20069;-57
2023/09/25 00:41:34;;;;;;;5.22;2.30;;;;;;;;;;2089858;28;20028;-57
2023/09/25 00:42:35;;;;;;;4.53;2.60;;;;;;;;;;2089971;28;20507;-57
2023/09/25 00:43:35;;;;;;;4.40;2.42;;;;;;;;;;2089491;28;20052;-57
2023/09/25 00:44:36;;;;;;;4.15;2.33;;;;;;;;;;2089751;28;20033;-57
2023/09/25 00:45:37;;;;;;;5.45;2.67;;;;;;;;;;2089513;28;20072;-57
2023/09/25 00:46:38;;;;;;;3.88;2.25;;;;;;;;;;2090317;28;20056;-57
2023/09/25 00:47:41;;;;;;;5.10;2.45;;;;;;;;;;2088994;28;20523;-57
2023/09/25 00:48:42;;;;;;;5.35;2.97;;;;;;;;;;2089839;28;20513;-57
2023/09/25 00:49:43;;;;;;;7.53;3.05;;;;;;;;;;2089826;28;20044;-57
2023/09/25 00:50:44;;;;;;;3.95;2.63;;;;;;;;;;2089885;28;20036;-57
2023/09/25 00:51:44;;;;;;;7.55;3.10;;;;;;;;;;2089732;28;20439;-57
2023/09/25 00:52:45;;;;;;;4.50;2.70;;;;;;;;;;2089747;28;20041;-57
2023/09/25 00:53:47;;;;;;;4.13;2.15;;;;;;;;;;2090643;28;20478;-57
2023/09/25 00:54:48;;;;;;;5.43;2.58;;;;;;;;;;2081620;28;20040;-58
2023/09/25 00:55:48;;;;;;;6.13;2.80;;;;;;;;;;2073251;28;20064;-57
2023/09/25 00:56:50;;;;;;;5.85;2.65;;;;;;;;;;2065452;28;20494;-56
2023/09/25 00:57:51;;;;;;;3.72;2.17;;;;;;;;;;2073533;28;20041;-57
2023/09/25 00:58:52;;;;;;;5.55;2.30;;;;;;;;;;2089514;28;20037;-57
2023/09/25 00:59:52;;;;;;;5.78;2.53;;;;;;;;;;2090784;28;20128;-57
2023/09/25 01:00:53;;;;;;;5.00;2.30;;;;;;;;;;2089990;28;20047;-57
2023/09/25 01:01:54;;;;;;;4.63;2.80;;;;;;;;;;2089373;28;20392;-57
2023/09/25 01:02:55;;;;;;;4.65;2.58;;;;;;;;;;2081489;28;20033;-56
2023/09/25 01:03:56;;;;;;;4.03;2.72;;;;;;;;;;2089375;28;20397;-57
2023/09/25 01:05:05;;;;;;;5.40;2.15;;;;;;;;;;2090231;28;20040;-60
2023/09/25 01:06:05;;;;;;;5.07;2.35;;;;;;;;;;2081462;28;20386;-56
2023/09/25 01:07:07;;;;;;;4.20;2.25;;;;;;;;;;2081223;28;20127;-58
2023/09/25 01:08:08;;;;;;;5.25;2.72;;;;;;;;;;2090153;28;20083;-57
2023/09/25 01:09:09;;;;;;;4.93;2.70;;;;;;;;;;2090199;28;20041;-57
2023/09/25 01:10:14;;;;;;;4.57;2.38;;;;;;;;;;2089456;28;20416;-57
2023/09/25 01:11:15;;;;;;;7.45;2.90;;;;;;;;;;2089727;28;20543;-57
2023/09/25 01:12:15;;;;;;;4.60;2.50;;;;;;;;;;2090058;28;20090;-57
2023/09/25 01:13:16;;;;;;;5.55;2.55;;;;;;;;;;2090270;28;20039;-57
2023/09/25 01:14:17;;;;;;;5.95;2.55;;;;;;;;;;2090223;28;20033;-57
2023/09/25 01:15:17;;;;;;;4.82;2.78;;;;;;;;;;2090320;28;20032;-57
2023/09/25 01:16:18;;;;;;;5.53;2.83;;;;;;;;;;2089601;28;20047;-57
2023/09/25 01:17:19;;;;;;;5.57;2.88;;;;;;;;;;2081356;28;20045;-57
2023/09/25 01:18:20;;;;;;;4.88;2.50;;;;;;;;;;2089561;28;20033;-57
2023/09/25 01:19:21;;;;;;;5.18;2.70;;;;;;;;;;2090336;28;20037;-57
2023/09/25 01:20:22;;;;;;;5.30;2.60;;;;;;;;;;2090290;28;20044;-57
2023/09/25 01:21:23;;;;;;;5.10;2.70;;;;;;;;;;2089312;28;20041;-57
2023/09/25 01:22:25;;;;;;;4.68;2.92;;;;;;;;;;2089606;28;20037;-57
2023/09/25 01:23:26;;;;;;;6.53;3.38;;;;;;;;;;2089577;28;20405;-57
2023/09/25 01:24:27;;;;;;;5.03;2.60;;;;;;;;;;2089800;28;20056;-57
2023/09/25 01:25:28;;;;;;;5.47;2.90;;;;;;;;;;2089851;28;20060;-57
2023/09/25 01:26:30;;;;;;;5.50;2.90;;;;;;;;;;2089489;28;20037;-57
2023/09/25 01:27:30;;;;;;;5.90;3.03;;;;;;;;;;2089617;28;20033;-57
2023/09/25 01:28:31;;;;;;;6.63;2.67;;;;;;;;;;2089666;28;20528;-57
2023/09/25 01:29:32;;;;;;;7.18;3.03;;;;;;;;;;2089895;28;20029;-57
2023/09/25 01:30:33;;;;;;;6.22;2.60;;;;;;;;;;2089479;28;20069;-57
2023/09/25 01:31:33;;;;;;;6.85;2.80;;;;;;;;;;2089562;28;20045;-57
2023/09/25 01:32:35;;;;;;;4.45;2.70;;;;;;;;;;2089881;28;20041;-57
2023/09/25 01:33:36;;;;;;;5.85;2.75;;;;;;;;;;2089465;28;20029;-57
2023/09/25 01:34:36;;;;;;;5.50;2.90;;;;;;;;;;2089540;28;20029;-57
2023/09/25 01:35:38;;;;;;;5.53;2.80;;;;;;;;;;2090381;28;20037;-57
2023/09/25 01:36:39;;;;;;;6.30;3.22;;;;;;;;;;2090166;28;20049;-57
2023/09/25 01:37:40;;;;;;;4.60;2.53;;;;;;;;;;2090193;28;20388;-57
2023/09/25 01:38:40;;;;;;;4.65;2.95;;;;;;;;;;2090390;28;20029;-57
2023/09/25 01:39:41;;;;;;;4.65;2.80;;;;;;;;;;2090175;28;20116;-57
2023/09/25 01:40:42;;;;;;;6.30;3.17;;;;;;;;;;2089862;28;20052;-57
2023/09/25 01:41:43;;;;;;;6.68;3.45;;;;;;;;;;2090084;28;20045;-57
2023/09/25 01:42:44;;;;;;;5.22;2.95;;;;;;;;;;2090065;28;20050;-57
2023/09/25 01:43:45;;;;;;;6.15;3.20;;;;;;;;;;2090085;28;20036;-57
2023/09/25 01:44:45;;;;;;;8.43;3.33;;;;;;;;;;2088597;28;20052;-58
2023/09/25 01:45:46;;;;;;;6.07;3.25;;;;;;;;;;2089464;28;20033;-57
2023/09/25 01:46:47;;;;;;;7.75;4.10;;;;;;;;;;2089371;28;20045;-57
2023/09/25 01:47:51;;;;;;;7.57;3.13;;;;;;;;;;2089809;28;20056;-57
2023/09/25 01:48:51;;;;;;;5.97;3.20;;;;;;;;;;2090135;28;20374;-57
2023/09/25 01:49:53;;;;;;;5.85;3.55;;;;;;;;;;2089761;28;20041;-57
2023/09/25 01:50:54;;;;;;;7.95;3.38;;;;;;;;;;2089516;28;20029;-57
2023/09/25 01:51:54;;;;;;;4.93;2.67;;;;;;;;;;2090087;28;20397;-57
2023/09/25 01:52:56;;;;;;;6.45;3.00;;;;;;;;;;2089382;28;20040;-57
2023/09/25 01:53:57;;;;;;;4.53;2.63;;;;;;;;;;2089489;28;20045;-58
2023/09/25 01:54:57;;;;;;;5.38;3.00;;;;;;;;;;2089953;28;20037;-57
2023/09/25 01:56:07;;;;;;;6.63;3.78;;;;;;;;;;2089734;28;20412;-57
2023/09/25 01:57:08;;;;;;;5.70;3.45;;;;;;;;;;2089560;28;20049;-57
2023/09/25 01:58:09;;;;;;;4.47;2.90;;;;;;;;;;2089445;28;20412;-57
2023/09/25 01:59:10;;;;;;;7.63;3.58;;;;;;;;;;2089208;28;20057;-57
2023/09/25 02:00:12;;;;;;;6.63;3.53;;;;;;;;;;2089492;28;20044;-57
2023/09/25 02:01:16;;;;;;;5.90;3.45;;;;;;;;;;2081763;28;20044;-57
2023/09/25 02:02:16;;;;;;;7.07;3.75;;;;;;;;;;2088875;28;20146;-56
2023/09/25 02:03:17;;;;;;;8.02;3.90;;;;;;;;;;2089709;28;20048;-57
2023/09/25 02:04:18;;;;;;;7.30;3.42;;;;;;;;;;2089578;28;20044;-57
2023/09/25 02:05:18;;;;;;;6.68;3.22;;;;;;;;;;2089476;28;20056;-57
2023/09/25 02:06:19;;;;;;;6.93;3.42;;;;;;;;;;2089682;28;20432;-58
2023/09/25 02:07:21;;;;;;;5.45;3.00;;;;;;;;;;2089267;28;20049;-57
2023/09/25 02:08:22;;;;;;;9.07;3.63;;;;;;;;;;2089954;28;20044;-58
2023/09/25 02:09:24;;;;;;;6.50;3.33;;;;;;;;;;2090082;28;20041;-57
2023/09/25 02:10:25;;;;;;;6.70;3.80;;;;;;;;;;2089197;28;20049;-57
2023/09/25 02:11:25;;;;;;;8.02;4.13;;;;;;;;;;2089450;28;20045;-57
2023/09/25 02:12:26;;;;;;;7.50;4.03;;;;;;;;;;2081125;28;20045;-57
2023/09/25 02:13:27;;;;;;;6.97;3.50;;;;;;;;;;2081393;28;20366;-56
2023/09/25 02:14:28;;;;;;;6.80;3.78;;;;;;;;;;2089556;28;20504;-57
2023/09/25 02:15:28;;;;;;;8.95;3.90;;;;;;;;;;2089989;28;20041;-56
2023/09/25 02:16:29;;;;;;;8.55;4.10;;;;;;;;;;2089302;28;20102;-57
2023/09/25 02:17:30;;;;;;;6.82;3.50;;;;;;;;;;2089399;28;20036;-57
2023/09/25 02:18:30;;;;;;;6.15;3.47;;;;;;;;;;2081187;28;20037;-57
2023/09/25 02:19:31;;;;;;;8.52;3.85;;;;;;;;;;2080551;28;20493;-57
2023/09/25 02:20:33;;;;;;;6.22;3.58;;;;;;;;;;2080860;28;20048;-58
2023/09/25 02:21:33;;;;;;;15.90;4.00;;;;;;;;;;2089713;28;20037;-57
2023/09/25 02:22:34;;;;;;;6.88;3.83;;;;;;;;;;2089198;28;20105;-57
2023/09/25 02:23:35;;;;;;;5.40;3.17;;;;;;;;;;2081220;28;20038;-57
2023/09/25 02:24:37;;;;;;;7.05;3.20;;;;;;;;;;2089331;28;20037;-57
2023/09/25 02:25:37;;;;;;;7.60;3.75;;;;;;;;;;2090092;28;20036;-57
2023/09/25 02:26:38;;;;;;;5.80;3.30;;;;;;;;;;2089969;28;20044;-57
2023/09/25 02:27:39;;;;;;;5.90;3.42;;;;;;;;;;2088990;28;20049;-57
2023/09/25 02:28:40;;;;;;;8.20;4.15;;;;;;;;;;2089495;28;20037;-57
2023/09/25 02:29:40;;;;;;;7.45;3.38;;;;;;;;;;2090113;28;20029;-56
2023/09/25 02:30:41;;;;;;;6.78;4.00;;;;;;;;;;2089742;28;20104;-58
2023/09/25 02:31:42;;;;;;;5.38;3.50;;;;;;;;;;2089021;28;20037;-57
2023/09/25 02:32:43;;;;;;;5.68;3.50;;;;;;;;;;2089948;28;20388;-57
2023/09/25 02:33:44;;;;;;;7.47;3.28;;;;;;;;;;2090075;28;20032;-57
2023/09/25 02:34:45;;;;;;;6.57;3.40;;;;;;;;;;2081018;28;20044;-57
2023/09/25 02:35:46;;;;;;;6.13;3.22;;;;;;;;;;2081091;28;20040;-57
2023/09/25 02:36:47;;;;;;;8.73;4.20;;;;;;;;;;2098108;28;20033;-57
2023/09/25 02:37:47;;;;;;;8.25;4.30;;;;;;;;;;2090166;28;20041;-57
2023/09/25 02:38:49;;;;;;;6.28;4.07;;;;;;;;;;2090789;28;20052;-57
2023/09/25 02:39:50;;;;;;;6.40;3.55;;;;;;;;;;2091636;28;20492;-57
2023/09/25 02:40:50;;;;;;;7.15;3.85;;;;;;;;;;2091362;28;20040;-57
2023/09/25 02:41:51;;;;;;;8.75;3.90;;;;;;;;;;2091500;28;20052;-56
2023/09/25 02:42:53;;;;;;;8.20;4.35;;;;;;;;;;2090721;28;20048;-57
2023/09/25 02:43:53;;;;;;;6.35;4.20;;;;;;;;;;2090811;28;20098;-57
2023/09/25 02:44:54;;;;;;;8.77;4.55;;;;;;;;;;2091460;28;20056;-57
2023/09/25 02:45:55;;;;;;;8.18;4.20;;;;;;;;;;2091272;28;20029;-56
2023/09/25 02:46:56;;;;;;;8.23;4.45;;;;;;;;;;2091360;28;20057;-57
2023/09/25 02:47:56;;;;;;;10.23;4.97;;;;;;;;;;2091176;28;20033;-57
2023/09/25 02:48:57;;;;;;;7.57;4.45;;;;;;;;;;2091428;28;20119;-56
2023/09/25 02:49:58;;;;;;;7.00;4.07;;;;;;;;;;2091436;28;20463;-57
2023/09/25 02:50:58;;;;;;;8.73;4.53;;;;;;;;;;2090597;28;20500;-56
2023/09/25 02:51:59;;;;;;;6.22;4.30;;;;;;;;;;2090645;28;20045;-57
2023/09/25 02:53:00;;;;;;;9.88;4.97;;;;;;;;;;2090288;28;20052;-57
2023/09/25 02:54:01;;;;;;;7.47;4.78;;;;;;;;;;2082459;28;20053;-56
2023/09/25 02:55:02;;;;;;;7.65;4.47;;;;;;;;;;2090741;28;20476;-57
2023/09/25 02:56:03;;;;;;;9.18;4.68;;;;;;;;;;2091266;28;20049;-57
2023/09/25 02:57:04;;;;;;;7.57;4.80;;;;;;;;;;2090704;28;20045;-57
2023/09/25 02:58:04;;;;;;;7.63;4.60;;;;;;;;;;2092033;28;20052;-65
2023/09/25 02:59:05;;;;;;;9.05;5.18;;;;;;;;;;2092743;28;20535;-58
2023/09/25 03:00:10;;;;;;;8.30;4.80;;;;;;;;;;2091886;28;20049;-58
2023/09/25 03:01:11;;;;;;;6.53;4.57;;;;;;;;;;2092206;28;20040;-57
2023/09/25 03:02:12;;;;;;;9.77;4.95;;;;;;;;;;2092769;28;20076;-60
2023/09/25 03:03:14;;;;;;;9.73;5.00;;;;;;;;;;2091513;28;20056;-57
2023/09/25 03:04:14;;;;;;;10.10;5.35;;;;;;;;;;2091942;28;20033;-58
2023/09/25 03:05:15;;;;;;;9.25;4.63;;;;;;;;;;2091622;28;20453;-58
2023/09/25 03:06:16;;;;;;;8.32;5.32;;;;;;;;;;2091353;28;20401;-57
2023/09/25 03:07:17;;;;;;;9.02;4.47;;;;;;;;;;2091238;28;20029;-57
2023/09/25 03:08:17;;;;;;;8.13;5.10;;;;;;;;;;2090287;28;20040;-57
2023/09/25 03:09:18;;;;;;;10.27;4.70;;;;;;;;;;2090022;28;20041;-57
2023/09/25 03:10:19;;;;;;;7.13;4.78;;;;;;;;;;2091089;28;20033;-57
2023/09/25 03:11:20;;;;;;;8.98;5.53;;;;;;;;;;2090808;28;20041;-57
2023/09/25 03:12:21;;;;;;;8.55;5.10;;;;;;;;;;2082365;28;20053;-57
2023/09/25 03:13:21;;;;;;;9.05;5.15;;;;;;;;;;2090655;28;20072;-57
2023/09/25 03:14:22;;;;;;;7.65;4.47;;;;;;;;;;2091635;28;20041;-56
2023/09/25 03:15:24;;;;;;;8.55;5.00;;;;;;;;;;2091120;28;20465;-58
2023/09/25 03:16:24;;;;;;;8.52;5.22;;;;;;;;;;2091146;28;20468;-57
2023/09/25 03:17:25;;;;;;;7.97;4.88;;;;;;;;;;2091108;28;20025;-58
2023/09/25 03:18:26;;;;;;;8.10;5.05;;;;;;;;;;2091040;28;20053;-57
2023/09/25 03:19:29;;;;;;;10.50;5.35;;;;;;;;;;2091034;28;20043;-57
2023/09/25 03:20:29;;;;;;;11.25;5.53;;;;;;;;;;2091073;28;20500;-58
2023/09/25 03:21:31;;;;;;;9.82;5.20;;;;;;;;;;2090664;28;20049;-58
2023/09/25 03:22:32;;;;;;;10.02;4.18;;;;;;;;;;2090019;28;20036;-58
2023/09/25 03:23:33;;;;;;;9.85;4.95;;;;;;;;;;2098679;28;20032;-57
2023/09/25 03:24:35;;;;;;;8.70;4.97;;;;;;;;;;2091114;28;20052;-58
2023/09/25 03:25:35;;;;;;;7.05;4.50;;;;;;;;;;2091223;28;20052;-58
2023/09/25 03:26:37;;;;;;;8.48;4.63;;;;;;;;;;2090409;28;20116;-58
2023/09/25 03:27:38;;;;;;;10.63;4.18;;;;;;;;;;2082165;28;20033;-58
2023/09/25 03:28:39;;;;;;;7.40;4.47;;;;;;;;;;2090616;28;20025;-58
2023/09/25 03:29:40;;;;;;;7.35;4.40;;;;;;;;;;2090132;28;20045;-58
2023/09/25 03:30:41;;;;;;;8.07;4.85;;;;;;;;;;2089825;28;20045;-57
2023/09/25 03:31:42;;;;;;;7.07;4.57;;;;;;;;;;2090790;28;20404;-58
2023/09/25 03:32:43;;;;;;;6.47;4.60;;;;;;;;;;2090106;28;20037;-58
2023/09/25 03:33:44;;;;;;;12.40;4.70;;;;;;;;;;2082210;28;20041;-58
2023/09/25 03:34:45;;;;;;;8.55;5.05;;;;;;;;;;2089996;28;20388;-57
2023/09/25 03:35:46;;;;;;;7.75;4.57;;;;;;;;;;2091503;28;20041;-58
2023/09/25 03:36:46;;;;;;;7.32;4.50;;;;;;;;;;2090164;28;20044;-58
2023/09/25 03:37:47;;;;;;;8.60;5.25;;;;;;;;;;2089968;28;20041;-58
2023/09/25 03:38:48;;;;;;;14.35;5.95;;;;;;;;;;2090500;28;20032;-58
2023/09/25 03:39:49;;;;;;;8.82;4.35;;;;;;;;;;2082006;28;20045;-58
2023/09/25 03:40:49;;;;;;;8.80;4.43;;;;;;;;;;2090039;28;20045;-58
2023/09/25 03:41:51;;;;;;;7.72;5.20;;;;;;;;;;2090243;28;20052;-58
2023/09/25 03:42:51;;;;;;;6.90;4.45;;;;;;;;;;2082127;28;20041;-58
2023/09/25 03:43:52;;;;;;;9.95;5.20;;;;;;;;;;2090328;28;20032;-58
2023/09/25 03:44:53;;;;;;;6.32;4.45;;;;;;;;;;2098534;28;20044;-58
2023/09/25 03:45:54;;;;;;;10.55;5.30;;;;;;;;;;2091524;28;20047;-57
2023/09/25 03:46:56;;;;;;;8.55;5.18;;;;;;;;;;2090506;28;20037;-58
2023/09/25 03:47:57;;;;;;;7.43;5.20;;;;;;;;;;2089749;28;20128;-58
2023/09/25 03:49:05;;;;;;;8.48;5.28;;;;;;;;;;2090312;28;20044;-58
2023/09/25 03:50:06;;;;;;;7.78;5.15;;;;;;;;;;2082725;28;20053;-58
2023/09/25 03:51:07;;;;;;;8.27;5.28;;;;;;;;;;2090218;28;20040;-58
2023/09/25 03:52:07;;;;;;;8.75;5.10;;;;;;;;;;2090686;28;20511;-58
2023/09/25 03:53:08;;;;;;;7.70;4.97;;;;;;;;;;2091155;28;20036;-57
2023/09/25 03:54:09;;;;;;;7.90;5.05;;;;;;;;;;2089891;28;20049;-57
2023/09/25 03:55:11;;;;;;;12.20;5.60;;;;;;;;;;2081916;28;20037;-57
2023/09/25 03:56:11;;;;;;;11.10;5.82;;;;;;;;;;2073861;28;20465;-58
2023/09/25 03:57:12;;;;;;;10.73;5.63;;;;;;;;;;2090314;28;20025;-58
2023/09/25 03:58:13;;;;;;;11.50;6.10;;;;;;;;;;2090818;28;20044;-57
2023/09/25 03:59:14;;;;;;;10.43;5.60;;;;;;;;;;2089868;28;20427;-58
2023/09/25 04:00:16;;;;;;;8.48;5.32;;;;;;;;;;2090319;28;20064;-58
2023/09/25 04:01:17;;;;;;;10.63;6.45;;;;;;;;;;2090780;28;20037;-58
2023/09/25 04:02:17;;;;;;;9.80;5.15;;;;;;;;;;2090823;28;20049;-56
2023/09/25 04:03:18;;;;;;;9.55;5.82;;;;;;;;;;2090429;28;20041;-57
2023/09/25 04:04:19;;;;;;;11.23;6.60;;;;;;;;;;2091124;28;20481;-58
2023/09/25 04:05:19;;;;;;;11.13;5.68;;;;;;;;;;2090649;28;20043;-57
2023/09/25 04:06:20;;;;;;;9.38;5.43;;;;;;;;;;2091105;28;20064;-58
2023/09/25 04:07:21;;;;;;;9.48;5.53;;;;;;;;;;2090021;28;20079;-57
2023/09/25 04:08:21;;;;;;;13.93;5.82;;;;;;;;;;2089764;28;20060;-57
2023/09/25 04:09:22;;;;;;;10.23;6.32;;;;;;;;;;2090804;28;20058;-58
2023/09/25 04:10:23;;;;;;;12.30;7.30;;;;;;;;;;2090768;28;20060;-57
2023/09/25 04:11:24;;;;;;;12.00;6.88;;;;;;;;;;2090649;28;20033;-57
2023/09/25 04:12:24;;;;;;;10.57;6.78;;;;;;;;;;2090750;28;20396;-58
2023/09/25 04:13:26;;;;;;;9.48;5.90;;;;;;;;;;2090370;28;20049;-58
2023/09/25 04:14:35;;;;;;;8.15;5.72;;;;;;;;;;2090701;28;20028;-58
2023/09/25 04:15:36;;;;;;;9.70;5.72;;;;;;;;;;2090919;28;20041;-58
2023/09/25 04:16:36;;;;;;;9.85;6.43;;;;;;;;;;2090643;28;20033;-58
2023/09/25 04:17:38;;;;;;;8.95;6.90;;;;;;;;;;2090789;28;20057;-58
2023/09/25 04:18:42;;;;;;;11.43;7.53;;;;;;;;;;2090863;28;20025;-58
2023/09/25 04:19:44;;;;;;;8.43;5.85;;;;;;;;;;2090575;28;20059;-58
2023/09/25 04:20:45;;;;;;;10.15;6.00;;;;;;;;;;2090546;28;20029;-58
2023/09/25 04:21:47;;;;;;;9.82;7.55;;;;;;;;;;2090515;28;20032;-58
2023/09/25 04:22:48;;;;;;;11.13;7.35;;;;;;;;;;2090404;28;20081;-58
2023/09/25 04:23:49;;;;;;;12.05;7.47;;;;;;;;;;2093373;28;20029;-58
2023/09/25 04:24:50;;;;;;;12.80;6.90;;;;;;;;;;2090553;28;20393;-58
2023/09/25 04:25:51;;;;;;;9.95;6.32;;;;;;;;;;2090486;28;20045;-58
2023/09/25 04:26:52;;;;;;;10.98;7.53;;;;;;;;;;2090164;28;20052;-58
2023/09/25 04:27:53;;;;;;;12.63;7.00;;;;;;;;;;2090788;28;20043;-58
2023/09/25 04:28:55;;;;;;;9.73;6.70;;;;;;;;;;2090658;28;20369;-58
2023/09/25 04:29:57;;;;;;;9.38;7.15;;;;;;;;;;2090498;28;20044;-58
2023/09/25 04:30:58;;;;;;;12.77;7.55;;;;;;;;;;2090733;28;20046;-58
2023/09/25 04:31:58;;;;;;;9.30;6.35;;;;;;;;;;2090483;28;20101;-58
2023/09/25 04:33:00;;;;;;;10.05;7.25;;;;;;;;;;2090688;28;20048;-58
2023/09/25 04:34:03;;;;;;;9.50;6.25;;;;;;;;;;2090541;28;20040;-57
2023/09/25 04:35:07;;;;;;;12.38;7.15;;;;;;;;;;2090601;28;20041;-58
2023/09/25 04:36:10;;;;;;;11.82;7.25;;;;;;;;;;2090787;28;20041;-58
2023/09/25 04:37:10;;;;;;;10.82;7.70;;;;;;;;;;2090467;28;20048;-58
2023/09/25 04:38:12;;;;;;;12.15;7.80;;;;;;;;;;2090409;28;20048;-57
2023/09/25 04:39:16;;;;;;;10.65;7.15;;;;;;;;;;2090549;28;20045;-57
2023/09/25 04:41:21;;;;;;;11.10;6.55;;;;;;;;;;2090540;28;20041;-58
2023/09/25 04:42:22;;;;;;;9.60;6.72;;;;;;;;;;2090567;28;20465;-57
2023/09/25 04:43:23;;;;;;;11.50;7.43;;;;;;;;;;2090480;28;20045;-57
2023/09/25 04:44:23;;;;;;;10.70;7.32;;;;;;;;;;2090570;28;20123;-58
2023/09/25 04:45:24;;;;;;;11.65;7.10;;;;;;;;;;2090018;28;20052;-57
2023/09/25 04:46:25;;;;;;;12.18;6.50;;;;;;;;;;2090374;28;20025;-58
2023/09/25 04:47:26;;;;;;;11.05;7.43;;;;;;;;;;2090361;28;20366;-57
2023/09/25 04:48:29;;;;;;;9.82;6.25;;;;;;;;;;2090120;28;20489;-58
2023/09/25 04:49:30;;;;;;;12.57;7.60;;;;;;;;;;2090404;28;20045;-58
2023/09/25 04:50:31;;;;;;;13.80;8.68;;;;;;;;;;2090373;28;20060;-58
2023/09/25 04:51:32;;;;;;;11.55;6.70;;;;;;;;;;2090620;28;20044;-57
2023/09/25 04:52:33;;;;;;;10.18;7.05;;;;;;;;;;2090337;28;20059;-57
2023/09/25 04:53:34;;;;;;;11.02;7.15;;;;;;;;;;2090289;28;20477;-57
2023/09/25 04:54:37;;;;;;;11.93;8.05;;;;;;;;;;2090609;28;20028;-57
2023/09/25 04:55:40;;;;;;;14.70;7.88;;;;;;;;;;2089924;28;20032;-58
2023/09/25 04:56:41;;;;;;;10.70;7.45;;;;;;;;;;2089197;28;20049;-58
2023/09/25 04:57:45;;;;;;;11.63;7.43;;;;;;;;;;2090370;28;20029;-58
2023/09/25 04:58:46;;;;;;;10.63;7.28;;;;;;;;;;2090084;28;20037;-57
2023/09/25 04:59:46;;;;;;;13.15;7.45;;;;;;;;;;2090115;28;20048;-58
2023/09/25 05:00:48;;;;;;;10.75;6.63;;;;;;;;;;2091038;28;20058;-58
2023/09/25 05:01:48;;;;;;;11.25;6.82;;;;;;;;;;2090413;28;20029;-58
2023/09/25 05:02:49;;;;;;;12.15;7.40;;;;;;;;;;2090230;28;20064;-57
2023/09/25 05:03:50;;;;;;;11.65;7.72;;;;;;;;;;2090438;28;20496;-57
2023/09/25 05:04:51;;;;;;;11.55;7.53;;;;;;;;;;2090235;28;20067;-57
2023/09/25 05:05:52;;;;;;;12.48;7.13;;;;;;;;;;2090346;28;20090;-58
2023/09/25 05:06:52;;;;;;;15.32;7.63;;;;;;;;;;2090210;28;20036;-58
2023/09/25 05:07:54;;;;;;;15.02;8.20;;;;;;;;;;2090252;28;20029;-57
2023/09/25 05:08:54;;;;;;;13.43;8.27;;;;;;;;;;2090516;28;20044;-58
2023/09/25 05:09:55;;;;;;;13.90;9.00;;;;;;;;;;2090350;28;20032;-57
2023/09/25 05:10:59;;;;;;;12.13;7.95;;;;;;;;;;2090707;28;20082;-57
2023/09/25 05:12:00;;;;;;;14.73;7.63;;;;;;;;;;2090600;28;20377;-57
2023/09/25 05:13:00;;;;;;;15.00;9.38;;;;;;;;;;2090421;28;20037;-58
2023/09/25 05:14:01;;;;;;;11.80;7.32;;;;;;;;;;2089935;28;20055;-57
2023/09/25 05:15:02;;;;;;;11.48;7.68;;;;;;;;;;2090284;28;20053;-57
2023/09/25 05:16:03;;;;;;;10.88;7.10;;;;;;;;;;2089852;28;20044;-58
2023/09/25 05:17:04;;;;;;;13.13;7.13;;;;;;;;;;2090629;28;20507;-57
2023/09/25 05:18:05;;;;;;;11.35;7.10;;;;;;;;;;2090131;28;20469;-57
2023/09/25 05:19:05;;;;;;;11.30;7.68;;;;;;;;;;2089924;28;20045;-57
2023/09/25 05:20:15;;;;;;;10.48;7.20;;;;;;;;;;2090223;28;20045;-57
2023/09/25 05:21:16;;;;;;;12.00;6.53;;;;;;;;;;2090148;28;20048;-57
2023/09/25 05:22:17;;;;;;;10.75;6.05;;;;;;;;;;2089551;28;20443;-57
2023/09/25 05:23:20;;;;;;;10.88;5.82;;;;;;;;;;2089556;28;20116;-57
2023/09/25 05:24:21;;;;;;;10.32;6.30;;;;;;;;;;2089886;28;20048;-57
2023/09/25 05:25:21;;;;;;;8.70;5.65;;;;;;;;;;2090163;28;20480;-57
2023/09/25 05:26:22;;;;;;;9.30;5.60;;;;;;;;;;2090528;28;20254;-57
2023/09/25 05:27:23;;;;;;;8.75;5.28;;;;;;;;;;2090234;28;20449;-57
2023/09/25 05:28:24;;;;;;;9.23;5.18;;;;;;;;;;2090254;28;20044;-57
2023/09/25 05:29:25;;;;;;;10.55;5.18;;;;;;;;;;2089728;28;20119;-57
2023/09/25 05:30:26;;;;;;;10.60;5.57;;;;;;;;;;2089720;28;20048;-56
2023/09/25 05:31:27;;;;;;;10.70;5.30;;;;;;;;;;2090302;28;20037;-57
2023/09/25 05:32:27;;;;;;;6.57;4.60;;;;;;;;;;2089920;28;20124;-57
2023/09/25 05:33:28;;;;;;;7.68;5.20;;;;;;;;;;2090185;28;20029;-57
2023/09/25 05:34:29;;;;;;;12.68;6.00;;;;;;;;;;2089859;28;20068;-58
2023/09/25 05:35:30;;;;;;;7.53;5.00;;;;;;;;;;2090739;28;20389;-57
2023/09/25 05:36:31;;;;;;;7.65;4.53;;;;;;;;;;2090398;28;20394;-57
2023/09/25 05:37:32;;;;;;;9.82;5.65;;;;;;;;;;2090397;28;20057;-57
2023/09/25 05:38:33;;;;;;;8.93;4.88;;;;;;;;;;2090185;28;20032;-57
2023/09/25 05:39:34;;;;;;;8.57;5.25;;;;;;;;;;2090455;28;20044;-58
2023/09/25 05:40:34;;;;;;;9.50;4.82;;;;;;;;;;2089799;28;20071;-57
2023/09/25 05:41:35;;;;;;;8.20;5.25;;;;;;;;;;2090104;28;20481;-57
2023/09/25 05:42:39;;;;;;;8.60;4.30;;;;;;;;;;2090251;28;20033;-58
2023/09/25 05:43:40;;;;;;;9.32;5.40;;;;;;;;;;2090057;28;20040;-58
2023/09/25 05:44:41;;;;;;;10.15;5.03;;;;;;;;;;2089889;28;20438;-57
2023/09/25 05:45:42;;;;;;;12.50;5.60;;;;;;;;;;2090152;28;20125;-57
2023/09/25 05:46:43;;;;;;;11.07;5.22;;;;;;;;;;2089762;28;20052;-57
2023/09/25 05:47:44;;;;;;;10.45;5.13;;;;;;;;;;2090110;28;20385;-57
2023/09/25 05:48:46;;;;;;;12.13;5.30;;;;;;;;;;2089896;28;20049;-57
2023/09/25 05:49:46;;;;;;;9.80;4.55;;;;;;;;;;2090313;28;20369;-57
2023/09/25 05:50:47;;;;;;;12.68;4.88;;;;;;;;;;2090068;28;20032;-57
2023/09/25 05:51:53;;;;;;;9.90;4.70;;;;;;;;;;2090038;28;20120;-57
2023/09/25 05:52:54;;;;;;;13.23;5.18;;;;;;;;;;2090108;28;20457;-57
2023/09/25 05:53:55;;;;;;;11.35;5.15;;;;;;;;;;2090153;28;20488;-58
2023/09/25 05:54:55;;;;;;;10.73;5.10;;;;;;;;;;2090200;28;20072;-57
2023/09/25 05:55:56;;;;;;;15.98;5.30;;;;;;;;;;2090148;28;20036;-58
2023/09/25 05:56:57;;;;;;;7.35;3.80;;;;;;;;;;2089983;28;20040;-57
2023/09/25 05:57:58;;;;;;;7.28;4.30;;;;;;;;;;2089971;28;20139;-57
2023/09/25 05:58:59;;;;;;;7.18;4.07;;;;;;;;;;2089836;28;20041;-57
2023/09/25 06:00:00;;;;;;;9.30;4.15;;;;;;;;;;2090075;28;20052;-57
2023/09/25 06:01:01;;;;;;;7.45;4.07;;;;;;;;;;2090289;28;20075;-58
2023/09/25 06:02:02;;;;;;;7.05;3.90;;;;;;;;;;2090074;28;20036;-58
2023/09/25 06:03:04;;;;;;;8.15;4.32;;;;;;;;;;2089999;28;20049;-57
2023/09/25 06:04:05;;;;;;;9.00;4.72;;;;;;;;;;2090264;28;20036;-58
2023/09/25 06:05:06;;;;;;;9.02;4.30;;;;;;;;;;2089919;28;20430;-59
2023/09/25 06:06:07;;;;;;;8.68;3.90;;;;;;;;;;2090083;28;20090;-57
2023/09/25 06:07:07;;;;;;;7.80;4.50;;;;;;;;;;2089973;28;20060;-57